Open Full Screen Window  High Contrast Mode
Wind Gusting 00 knots
03
June 20, 2018 3:21 AM EDT
Present Weather: Mist
Weather Information
Wind Direction
  120 °
Wind Speed
  03 kt (3 mph)
Wind Gust
  00 kt (0 mph)
Altimeter
29.88 in
Visibility
5 SM
Temperature
21° C
70° F
Dewpoint
21° C
70° F
Humidity
100%
Sky Condition
Clear
MVFR

METAR KAXV 200721Z AUTO 12003KT 5SM BR CLR 21/21 A2988 RMK AO2

FAA Disclaimer: The data displayed is for advisory purposes only and is not to be used for flight planning or operations.